<?xml version='1.0' encoding='UTF-8'?>
<gpx version="1.1" creator="https://www.komoot.de" xmlns="http://www.topografix.com/GPX/1/1" xmlns:xsi="http://www.w3.org/2001/XMLSchema-instance" xsi:schemaLocation="http://www.topografix.com/GPX/1/1 http://www.topografix.com/GPX/1/1/gpx.xsd">
  <metadata>
    <name>PWW CFK Spiesen 19,3km</name>
    <author>
      <link href="https://www.komoot.de">
        <text>komoot</text>
        <type>text/html</type>
      </link>
    </author>
  </metadata>
  <trk>
    <name>PWW CFK Spiesen 19,3km</name>
    <trkseg>
      <trkpt lat="49.310049" lon="7.168023">
        <ele>337.546977</ele>
        <time>2021-10-20T19:31:34.396Z</time>
      </trkpt>
      <trkpt lat="49.310049" lon="7.168023">
        <ele>337.546977</ele>
        <time>2021-10-20T19:31:34.413Z</time>
      </trkpt>
      <trkpt lat="49.309989" lon="7.167949">
        <ele>337.546977</ele>
        <time>2021-10-20T19:31:42.119Z</time>
      </trkpt>
      <trkpt lat="49.309972" lon="7.167806">
        <ele>337.546977</ele>
        <time>2021-10-20T19:31:51.667Z</time>
      </trkpt>
      <trkpt lat="49.309986" lon="7.167676">
        <ele>337.546977</ele>
        <time>2021-10-20T19:32:00.278Z</time>
      </trkpt>
      <trkpt lat="49.309986" lon="7.167676">
        <ele>337.546977</ele>
        <time>2021-10-20T19:32:00.406Z</time>
      </trkpt>
      <trkpt lat="49.309986" lon="7.167676">
        <ele>337.546977</ele>
        <time>2021-10-20T19:32:00.595Z</time>
      </trkpt>
      <trkpt lat="49.309748" lon="7.167847">
        <ele>337.546977</ele>
        <time>2021-10-20T19:32:27.429Z</time>
      </trkpt>
      <trkpt lat="49.309509" lon="7.168000">
        <ele>337.546977</ele>
        <time>2021-10-20T19:32:54.556Z</time>
      </trkpt>
      <trkpt lat="49.309410" lon="7.168061">
        <ele>337.546977</ele>
        <time>2021-10-20T19:33:05.714Z</time>
      </trkpt>
      <trkpt lat="49.309324" lon="7.168149">
        <ele>337.656686</ele>
        <time>2021-10-20T19:33:17.002Z</time>
      </trkpt>
      <trkpt lat="49.308597" lon="7.168684">
        <ele>338.637297</ele>
        <time>2021-10-20T19:34:41.342Z</time>
      </trkpt>
      <trkpt lat="49.308476" lon="7.168831">
        <ele>338.825015</ele>
        <time>2021-10-20T19:34:57.444Z</time>
      </trkpt>
      <trkpt lat="49.308389" lon="7.168958">
        <ele>338.971076</ele>
        <time>2021-10-20T19:35:10.669Z</time>
      </trkpt>
      <trkpt lat="49.308054" lon="7.169191">
        <ele>339.418406</ele>
        <time>2021-10-20T19:35:49.362Z</time>
      </trkpt>
      <trkpt lat="49.307730" lon="7.169278">
        <ele>339.672822</ele>
        <time>2021-10-20T19:36:23.481Z</time>
      </trkpt>
      <trkpt lat="49.306685" lon="7.170025">
        <ele>338.647188</ele>
        <time>2021-10-20T19:38:19.003Z</time>
      </trkpt>
      <trkpt lat="49.305589" lon="7.170650">
        <ele>335.659187</ele>
        <time>2021-10-20T19:40:23.365Z</time>
      </trkpt>
      <trkpt lat="49.305142" lon="7.170709">
        <ele>333.785748</ele>
        <time>2021-10-20T19:41:12.822Z</time>
      </trkpt>
      <trkpt lat="49.304582" lon="7.171207">
        <ele>331.082682</ele>
        <time>2021-10-20T19:42:23.929Z</time>
      </trkpt>
      <trkpt lat="49.304228" lon="7.171527">
        <ele>329.429299</ele>
        <time>2021-10-20T19:43:09.034Z</time>
      </trkpt>
      <trkpt lat="49.304102" lon="7.171605">
        <ele>328.890121</ele>
        <time>2021-10-20T19:43:23.946Z</time>
      </trkpt>
      <trkpt lat="49.304000" lon="7.171643">
        <ele>328.473601</ele>
        <time>2021-10-20T19:43:35.287Z</time>
      </trkpt>
      <trkpt lat="49.304000" lon="7.171643">
        <ele>328.473601</ele>
        <time>2021-10-20T19:43:35.494Z</time>
      </trkpt>
      <trkpt lat="49.303879" lon="7.171643">
        <ele>327.993459</ele>
        <time>2021-10-20T19:43:48.754Z</time>
      </trkpt>
      <trkpt lat="49.302918" lon="7.171060">
        <ele>323.892576</ele>
        <time>2021-10-20T19:45:40.125Z</time>
      </trkpt>
      <trkpt lat="49.302873" lon="7.171033">
        <ele>323.700831</ele>
        <time>2021-10-20T19:45:45.277Z</time>
      </trkpt>
      <trkpt lat="49.302873" lon="7.171033">
        <ele>323.700831</ele>
        <time>2021-10-20T19:45:45.896Z</time>
      </trkpt>
      <trkpt lat="49.302873" lon="7.171033">
        <ele>323.700831</ele>
        <time>2021-10-20T19:45:46.797Z</time>
      </trkpt>
      <trkpt lat="49.302775" lon="7.170852">
        <ele>323.196250</ele>
        <time>2021-10-20T19:46:02.955Z</time>
      </trkpt>
      <trkpt lat="49.302174" lon="7.169682">
        <ele>320.360270</ele>
        <time>2021-10-20T19:47:45.642Z</time>
      </trkpt>
      <trkpt lat="49.301901" lon="7.168974">
        <ele>318.794115</ele>
        <time>2021-10-20T19:48:43.434Z</time>
      </trkpt>
      <trkpt lat="49.301622" lon="7.168177">
        <ele>317.861969</ele>
        <time>2021-10-20T19:49:45.010Z</time>
      </trkpt>
      <trkpt lat="49.301208" lon="7.167504">
        <ele>317.297778</ele>
        <time>2021-10-20T19:50:46.694Z</time>
      </trkpt>
      <trkpt lat="49.301037" lon="7.167232">
        <ele>317.067380</ele>
        <time>2021-10-20T19:51:11.619Z</time>
      </trkpt>
      <trkpt lat="49.301013" lon="7.167207">
        <ele>317.040249</ele>
        <time>2021-10-20T19:51:14.802Z</time>
      </trkpt>
      <trkpt lat="49.301037" lon="7.167232">
        <ele>317.013117</ele>
        <time>2021-10-20T19:51:17.948Z</time>
      </trkpt>
      <trkpt lat="49.301028" lon="7.167002">
        <ele>316.872610</ele>
        <time>2021-10-20T19:51:33.584Z</time>
      </trkpt>
      <trkpt lat="49.301063" lon="7.166659">
        <ele>316.660903</ele>
        <time>2021-10-20T19:51:56.672Z</time>
      </trkpt>
      <trkpt lat="49.301203" lon="7.166369">
        <ele>316.455267</ele>
        <time>2021-10-20T19:52:20.896Z</time>
      </trkpt>
      <trkpt lat="49.301469" lon="7.166401">
        <ele>316.237991</ele>
        <time>2021-10-20T19:52:48.549Z</time>
      </trkpt>
      <trkpt lat="49.301951" lon="7.166873">
        <ele>315.772291</ele>
        <time>2021-10-20T19:53:46.361Z</time>
      </trkpt>
      <trkpt lat="49.302812" lon="7.167517">
        <ele>314.433481</ele>
        <time>2021-10-20T19:55:24.348Z</time>
      </trkpt>
      <trkpt lat="49.303323" lon="7.167463">
        <ele>311.573293</ele>
        <time>2021-10-20T19:56:21.621Z</time>
      </trkpt>
      <trkpt lat="49.303574" lon="7.167356">
        <ele>310.118570</ele>
        <time>2021-10-20T19:56:52.091Z</time>
      </trkpt>
      <trkpt lat="49.303721" lon="7.167120">
        <ele>308.930225</ele>
        <time>2021-10-20T19:57:16.721Z</time>
      </trkpt>
      <trkpt lat="49.303672" lon="7.166133">
        <ele>305.326115</ele>
        <time>2021-10-20T19:58:29.520Z</time>
      </trkpt>
      <trkpt lat="49.303733" lon="7.165554">
        <ele>303.714321</ele>
        <time>2021-10-20T19:59:11.972Z</time>
      </trkpt>
      <trkpt lat="49.303743" lon="7.165379">
        <ele>303.255435</ele>
        <time>2021-10-20T19:59:24.113Z</time>
      </trkpt>
      <trkpt lat="49.303840" lon="7.165009">
        <ele>302.213733</ele>
        <time>2021-10-20T19:59:52.138Z</time>
      </trkpt>
      <trkpt lat="49.303929" lon="7.164860">
        <ele>301.685895</ele>
        <time>2021-10-20T20:00:05.532Z</time>
      </trkpt>
      <trkpt lat="49.304086" lon="7.164689">
        <ele>300.914457</ele>
        <time>2021-10-20T20:00:26.217Z</time>
      </trkpt>
      <trkpt lat="49.304321" lon="7.164586">
        <ele>299.935326</ele>
        <time>2021-10-20T20:00:53.107Z</time>
      </trkpt>
      <trkpt lat="49.305093" lon="7.164740">
        <ele>296.236043</ele>
        <time>2021-10-20T20:02:17.172Z</time>
      </trkpt>
      <trkpt lat="49.305263" lon="7.164726">
        <ele>295.166571</ele>
        <time>2021-10-20T20:02:34.672Z</time>
      </trkpt>
      <trkpt lat="49.305398" lon="7.164715">
        <ele>294.317310</ele>
        <time>2021-10-20T20:02:49.389Z</time>
      </trkpt>
      <trkpt lat="49.305412" lon="7.164714">
        <ele>294.229267</ele>
        <time>2021-10-20T20:02:50.889Z</time>
      </trkpt>
      <trkpt lat="49.305449" lon="7.164704">
        <ele>293.993253</ele>
        <time>2021-10-20T20:02:54.781Z</time>
      </trkpt>
      <trkpt lat="49.305508" lon="7.164643">
        <ele>293.546264</ele>
        <time>2021-10-20T20:03:02.311Z</time>
      </trkpt>
      <trkpt lat="49.305521" lon="7.164546">
        <ele>293.140646</ele>
        <time>2021-10-20T20:03:09.061Z</time>
      </trkpt>
      <trkpt lat="49.305516" lon="7.164414">
        <ele>292.599062</ele>
        <time>2021-10-20T20:03:19.631Z</time>
      </trkpt>
      <trkpt lat="49.305449" lon="7.164251">
        <ele>291.809819</ele>
        <time>2021-10-20T20:03:33.305Z</time>
      </trkpt>
      <trkpt lat="49.305263" lon="7.164062">
        <ele>290.408189</ele>
        <time>2021-10-20T20:03:58.789Z</time>
      </trkpt>
      <trkpt lat="49.303822" lon="7.163010">
        <ele>278.690465</ele>
        <time>2021-10-20T20:07:07.821Z</time>
      </trkpt>
      <trkpt lat="49.303354" lon="7.162796">
        <ele>274.779436</ele>
        <time>2021-10-20T20:08:04.078Z</time>
      </trkpt>
      <trkpt lat="49.302633" lon="7.162688">
        <ele>270.738913</ele>
        <time>2021-10-20T20:09:25.222Z</time>
      </trkpt>
      <trkpt lat="49.302500" lon="7.162350">
        <ele>269.827329</ele>
        <time>2021-10-20T20:09:53.270Z</time>
      </trkpt>
      <trkpt lat="49.302238" lon="7.160947">
        <ele>266.457375</ele>
        <time>2021-10-20T20:11:33.918Z</time>
      </trkpt>
      <trkpt lat="49.302203" lon="7.160201">
        <ele>265.745376</ele>
        <time>2021-10-20T20:12:24.230Z</time>
      </trkpt>
      <trkpt lat="49.302226" lon="7.159723">
        <ele>265.723862</ele>
        <time>2021-10-20T20:12:55.965Z</time>
      </trkpt>
      <trkpt lat="49.302531" lon="7.159057">
        <ele>265.687333</ele>
        <time>2021-10-20T20:13:49.328Z</time>
      </trkpt>
      <trkpt lat="49.302546" lon="7.158703">
        <ele>265.671410</ele>
        <time>2021-10-20T20:14:12.897Z</time>
      </trkpt>
      <trkpt lat="49.302618" lon="7.158368">
        <ele>265.655578</ele>
        <time>2021-10-20T20:14:36.753Z</time>
      </trkpt>
      <trkpt lat="49.302788" lon="7.158113">
        <ele>265.728259</ele>
        <time>2021-10-20T20:15:01.821Z</time>
      </trkpt>
      <trkpt lat="49.303367" lon="7.157682">
        <ele>267.275310</ele>
        <time>2021-10-20T20:16:11.472Z</time>
      </trkpt>
      <trkpt lat="49.303912" lon="7.157001">
        <ele>268.965128</ele>
        <time>2021-10-20T20:17:29.044Z</time>
      </trkpt>
      <trkpt lat="49.304119" lon="7.156958">
        <ele>269.467246</ele>
        <time>2021-10-20T20:17:52.393Z</time>
      </trkpt>
      <trkpt lat="49.304374" lon="7.157027">
        <ele>269.944445</ele>
        <time>2021-10-20T20:18:21.193Z</time>
      </trkpt>
      <trkpt lat="49.305045" lon="7.157634">
        <ele>269.632880</ele>
        <time>2021-10-20T20:19:42.841Z</time>
      </trkpt>
      <trkpt lat="49.305632" lon="7.157749">
        <ele>269.396207</ele>
        <time>2021-10-20T20:20:43.245Z</time>
      </trkpt>
      <trkpt lat="49.305893" lon="7.157700">
        <ele>269.291043</ele>
        <time>2021-10-20T20:21:11.140Z</time>
      </trkpt>
      <trkpt lat="49.305893" lon="7.157700">
        <ele>269.291043</ele>
        <time>2021-10-20T20:21:11.996Z</time>
      </trkpt>
      <trkpt lat="49.305893" lon="7.157700">
        <ele>269.291043</ele>
        <time>2021-10-20T20:21:13.246Z</time>
      </trkpt>
      <trkpt lat="49.305363" lon="7.157413">
        <ele>266.814978</ele>
        <time>2021-10-20T20:22:14.197Z</time>
      </trkpt>
      <trkpt lat="49.304643" lon="7.156545">
        <ele>261.856507</ele>
        <time>2021-10-20T20:23:57.264Z</time>
      </trkpt>
      <trkpt lat="49.303850" lon="7.156500">
        <ele>257.815391</ele>
        <time>2021-10-20T20:25:26.891Z</time>
      </trkpt>
      <trkpt lat="49.303005" lon="7.156990">
        <ele>253.565535</ele>
        <time>2021-10-20T20:27:06.693Z</time>
      </trkpt>
      <trkpt lat="49.302165" lon="7.158118">
        <ele>250.742827</ele>
        <time>2021-10-20T20:29:05.212Z</time>
      </trkpt>
      <trkpt lat="49.302038" lon="7.158451">
        <ele>250.611551</ele>
        <time>2021-10-20T20:29:31.051Z</time>
      </trkpt>
      <trkpt lat="49.301688" lon="7.158971">
        <ele>250.357239</ele>
        <time>2021-10-20T20:30:20.442Z</time>
      </trkpt>
      <trkpt lat="49.301031" lon="7.160037">
        <ele>251.770631</ele>
        <time>2021-10-20T20:32:04.589Z</time>
      </trkpt>
      <trkpt lat="49.300953" lon="7.160245">
        <ele>252.315488</ele>
        <time>2021-10-20T20:32:23.173Z</time>
      </trkpt>
      <trkpt lat="49.300919" lon="7.160874">
        <ele>253.748714</ele>
        <time>2021-10-20T20:33:13.332Z</time>
      </trkpt>
      <trkpt lat="49.301027" lon="7.161456">
        <ele>255.122786</ele>
        <time>2021-10-20T20:33:57.142Z</time>
      </trkpt>
      <trkpt lat="49.301218" lon="7.161910">
        <ele>256.349661</ele>
        <time>2021-10-20T20:34:35.732Z</time>
      </trkpt>
      <trkpt lat="49.301281" lon="7.162314">
        <ele>256.455413</ele>
        <time>2021-10-20T20:35:03.133Z</time>
      </trkpt>
      <trkpt lat="49.301214" lon="7.162384">
        <ele>256.481303</ele>
        <time>2021-10-20T20:35:13.861Z</time>
      </trkpt>
      <trkpt lat="49.301217" lon="7.162385">
        <ele>256.482284</ele>
        <time>2021-10-20T20:35:14.631Z</time>
      </trkpt>
      <trkpt lat="49.301214" lon="7.162384">
        <ele>256.483264</ele>
        <time>2021-10-20T20:35:15.174Z</time>
      </trkpt>
      <trkpt lat="49.300883" lon="7.161904">
        <ele>256.628747</ele>
        <time>2021-10-20T20:36:03.415Z</time>
      </trkpt>
      <trkpt lat="49.300634" lon="7.161681">
        <ele>256.720834</ele>
        <time>2021-10-20T20:36:34.188Z</time>
      </trkpt>
      <trkpt lat="49.300561" lon="7.161616">
        <ele>256.747791</ele>
        <time>2021-10-20T20:36:42.760Z</time>
      </trkpt>
      <trkpt lat="49.300177" lon="7.161561">
        <ele>256.870957</ele>
        <time>2021-10-20T20:37:21.806Z</time>
      </trkpt>
      <trkpt lat="49.299741" lon="7.161649">
        <ele>256.027455</ele>
        <time>2021-10-20T20:38:09.405Z</time>
      </trkpt>
      <trkpt lat="49.298362" lon="7.161707">
        <ele>249.913954</ele>
        <time>2021-10-20T20:40:41.831Z</time>
      </trkpt>
      <trkpt lat="49.298328" lon="7.161674">
        <ele>249.735634</ele>
        <time>2021-10-20T20:40:46.759Z</time>
      </trkpt>
      <trkpt lat="49.298166" lon="7.161698">
        <ele>249.014369</ele>
        <time>2021-10-20T20:41:04.032Z</time>
      </trkpt>
      <trkpt lat="49.298057" lon="7.161608">
        <ele>248.745151</ele>
        <time>2021-10-20T20:41:17.039Z</time>
      </trkpt>
      <trkpt lat="49.298023" lon="7.161610">
        <ele>248.677199</ele>
        <time>2021-10-20T20:41:20.905Z</time>
      </trkpt>
      <trkpt lat="49.297874" lon="7.161686">
        <ele>248.363598</ele>
        <time>2021-10-20T20:41:38.137Z</time>
      </trkpt>
      <trkpt lat="49.297797" lon="7.161624">
        <ele>248.189910</ele>
        <time>2021-10-20T20:41:47.184Z</time>
      </trkpt>
      <trkpt lat="49.297478" lon="7.161864">
        <ele>247.480282</ele>
        <time>2021-10-20T20:42:25.047Z</time>
      </trkpt>
      <trkpt lat="49.296601" lon="7.162826">
        <ele>245.419063</ele>
        <time>2021-10-20T20:44:15.989Z</time>
      </trkpt>
      <trkpt lat="49.296585" lon="7.162868">
        <ele>245.461124</ele>
        <time>2021-10-20T20:44:19.396Z</time>
      </trkpt>
      <trkpt lat="49.296601" lon="7.162826">
        <ele>245.503184</ele>
        <time>2021-10-20T20:44:22.651Z</time>
      </trkpt>
      <trkpt lat="49.296701" lon="7.163349">
        <ele>245.974468</ele>
        <time>2021-10-20T20:45:00.464Z</time>
      </trkpt>
      <trkpt lat="49.296687" lon="7.163549">
        <ele>246.148405</ele>
        <time>2021-10-20T20:45:14.434Z</time>
      </trkpt>
      <trkpt lat="49.296666" lon="7.163688">
        <ele>246.271783</ele>
        <time>2021-10-20T20:45:24.761Z</time>
      </trkpt>
      <trkpt lat="49.296608" lon="7.164119">
        <ele>246.652328</ele>
        <time>2021-10-20T20:45:55.330Z</time>
      </trkpt>
      <trkpt lat="49.296491" lon="7.164986">
        <ele>247.417921</ele>
        <time>2021-10-20T20:46:56.665Z</time>
      </trkpt>
      <trkpt lat="49.296520" lon="7.166623">
        <ele>249.256236</ele>
        <time>2021-10-20T20:48:48.925Z</time>
      </trkpt>
      <trkpt lat="49.296552" lon="7.166914">
        <ele>249.612425</ele>
        <time>2021-10-20T20:49:08.981Z</time>
      </trkpt>
      <trkpt lat="49.296797" lon="7.167822">
        <ele>250.798462</ele>
        <time>2021-10-20T20:50:17.126Z</time>
      </trkpt>
      <trkpt lat="49.296910" lon="7.168076">
        <ele>251.224778</ele>
        <time>2021-10-20T20:50:39.556Z</time>
      </trkpt>
      <trkpt lat="49.297081" lon="7.168303">
        <ele>251.957845</ele>
        <time>2021-10-20T20:51:04.760Z</time>
      </trkpt>
      <trkpt lat="49.297252" lon="7.168498">
        <ele>252.648536</ele>
        <time>2021-10-20T20:51:28.262Z</time>
      </trkpt>
      <trkpt lat="49.297412" lon="7.168743">
        <ele>253.381401</ele>
        <time>2021-10-20T20:51:54.230Z</time>
      </trkpt>
      <trkpt lat="49.297622" lon="7.169402">
        <ele>254.931698</ele>
        <time>2021-10-20T20:52:49.034Z</time>
      </trkpt>
      <trkpt lat="49.297677" lon="7.169542">
        <ele>255.277155</ele>
        <time>2021-10-20T20:53:00.130Z</time>
      </trkpt>
      <trkpt lat="49.297677" lon="7.169542">
        <ele>255.277155</ele>
        <time>2021-10-20T20:53:00.883Z</time>
      </trkpt>
      <trkpt lat="49.297770" lon="7.169549">
        <ele>255.578943</ele>
        <time>2021-10-20T20:53:11.446Z</time>
      </trkpt>
      <trkpt lat="49.298399" lon="7.169372">
        <ele>257.154515</ele>
        <time>2021-10-20T20:54:21.798Z</time>
      </trkpt>
      <trkpt lat="49.298570" lon="7.169287">
        <ele>257.338132</ele>
        <time>2021-10-20T20:54:40.969Z</time>
      </trkpt>
      <trkpt lat="49.298570" lon="7.169287">
        <ele>257.338132</ele>
        <time>2021-10-20T20:54:42.012Z</time>
      </trkpt>
      <trkpt lat="49.298606" lon="7.169439">
        <ele>257.445852</ele>
        <time>2021-10-20T20:54:52.778Z</time>
      </trkpt>
      <trkpt lat="49.298577" lon="7.169625">
        <ele>257.573240</ele>
        <time>2021-10-20T20:55:06.329Z</time>
      </trkpt>
      <trkpt lat="49.298500" lon="7.169804">
        <ele>257.716079</ele>
        <time>2021-10-20T20:55:21.598Z</time>
      </trkpt>
      <trkpt lat="49.298377" lon="7.170010">
        <ele>257.902128</ele>
        <time>2021-10-20T20:55:39.980Z</time>
      </trkpt>
      <trkpt lat="49.298222" lon="7.170599">
        <ele>258.325210</ele>
        <time>2021-10-20T20:56:22.131Z</time>
      </trkpt>
      <trkpt lat="49.298223" lon="7.171591">
        <ele>258.575095</ele>
        <time>2021-10-20T20:57:27.188Z</time>
      </trkpt>
      <trkpt lat="49.298323" lon="7.172365">
        <ele>258.132315</ele>
        <time>2021-10-20T20:58:20.336Z</time>
      </trkpt>
      <trkpt lat="49.298353" lon="7.172832">
        <ele>257.868986</ele>
        <time>2021-10-20T20:58:51.791Z</time>
      </trkpt>
      <trkpt lat="49.298371" lon="7.172901">
        <ele>257.827283</ele>
        <time>2021-10-20T20:58:56.682Z</time>
      </trkpt>
      <trkpt lat="49.298413" lon="7.173059">
        <ele>257.731537</ele>
        <time>2021-10-20T20:59:07.937Z</time>
      </trkpt>
      <trkpt lat="49.298189" lon="7.173478">
        <ele>257.427500</ele>
        <time>2021-10-20T20:59:44.045Z</time>
      </trkpt>
      <trkpt lat="49.298004" lon="7.173882">
        <ele>257.259162</ele>
        <time>2021-10-20T21:00:16.764Z</time>
      </trkpt>
      <trkpt lat="49.297888" lon="7.174453">
        <ele>257.486965</ele>
        <time>2021-10-20T21:00:56.392Z</time>
      </trkpt>
      <trkpt lat="49.297926" lon="7.174980">
        <ele>257.688922</ele>
        <time>2021-10-20T21:01:31.277Z</time>
      </trkpt>
      <trkpt lat="49.297787" lon="7.175381">
        <ele>257.861900</ele>
        <time>2021-10-20T21:02:01.047Z</time>
      </trkpt>
      <trkpt lat="49.297786" lon="7.175540">
        <ele>257.922466</ele>
        <time>2021-10-20T21:02:11.517Z</time>
      </trkpt>
      <trkpt lat="49.297868" lon="7.175690">
        <ele>257.997020</ele>
        <time>2021-10-20T21:02:25.382Z</time>
      </trkpt>
      <trkpt lat="49.297740" lon="7.176165">
        <ele>258.192786</ele>
        <time>2021-10-20T21:03:01.313Z</time>
      </trkpt>
      <trkpt lat="49.297451" lon="7.176331">
        <ele>258.965692</ele>
        <time>2021-10-20T21:03:34.886Z</time>
      </trkpt>
      <trkpt lat="49.297145" lon="7.176508">
        <ele>260.212237</ele>
        <time>2021-10-20T21:04:11.421Z</time>
      </trkpt>
      <trkpt lat="49.297023" lon="7.176565">
        <ele>260.698348</ele>
        <time>2021-10-20T21:04:26.059Z</time>
      </trkpt>
      <trkpt lat="49.297002" lon="7.176551">
        <ele>260.785627</ele>
        <time>2021-10-20T21:04:28.783Z</time>
      </trkpt>
      <trkpt lat="49.296990" lon="7.176510">
        <ele>260.897332</ele>
        <time>2021-10-20T21:04:32.167Z</time>
      </trkpt>
      <trkpt lat="49.296963" lon="7.176583">
        <ele>261.105935</ele>
        <time>2021-10-20T21:04:38.418Z</time>
      </trkpt>
      <trkpt lat="49.296968" lon="7.176766">
        <ele>261.561206</ele>
        <time>2021-10-20T21:04:51.341Z</time>
      </trkpt>
      <trkpt lat="49.296959" lon="7.176789">
        <ele>261.627878</ele>
        <time>2021-10-20T21:04:53.570Z</time>
      </trkpt>
      <trkpt lat="49.296968" lon="7.176766">
        <ele>261.694550</ele>
        <time>2021-10-20T21:04:55.404Z</time>
      </trkpt>
      <trkpt lat="49.297038" lon="7.177021">
        <ele>262.382253</ele>
        <time>2021-10-20T21:05:16.901Z</time>
      </trkpt>
      <trkpt lat="49.297191" lon="7.177327">
        <ele>263.340687</ele>
        <time>2021-10-20T21:05:45.280Z</time>
      </trkpt>
      <trkpt lat="49.297477" lon="7.177664">
        <ele>264.715450</ele>
        <time>2021-10-20T21:06:27.605Z</time>
      </trkpt>
      <trkpt lat="49.297815" lon="7.178391">
        <ele>266.719648</ele>
        <time>2021-10-20T21:07:35.606Z</time>
      </trkpt>
      <trkpt lat="49.298095" lon="7.179538">
        <ele>269.402802</ele>
        <time>2021-10-20T21:09:05.249Z</time>
      </trkpt>
      <trkpt lat="49.298310" lon="7.180189">
        <ele>271.001485</ele>
        <time>2021-10-20T21:09:56.710Z</time>
      </trkpt>
      <trkpt lat="49.298280" lon="7.180205">
        <ele>271.108191</ele>
        <time>2021-10-20T21:10:00.965Z</time>
      </trkpt>
      <trkpt lat="49.298310" lon="7.180189">
        <ele>271.181702</ele>
        <time>2021-10-20T21:10:04.570Z</time>
      </trkpt>
      <trkpt lat="49.298828" lon="7.181022">
        <ele>272.062358</ele>
        <time>2021-10-20T21:11:23.611Z</time>
      </trkpt>
      <trkpt lat="49.299127" lon="7.181513">
        <ele>272.576351</ele>
        <time>2021-10-20T21:12:08.663Z</time>
      </trkpt>
      <trkpt lat="49.299649" lon="7.182815">
        <ele>273.637029</ele>
        <time>2021-10-20T21:13:50.738Z</time>
      </trkpt>
      <trkpt lat="49.300115" lon="7.183464">
        <ele>274.205366</ele>
        <time>2021-10-20T21:14:55.671Z</time>
      </trkpt>
      <trkpt lat="49.300260" lon="7.183683">
        <ele>274.389111</ele>
        <time>2021-10-20T21:15:16.620Z</time>
      </trkpt>
      <trkpt lat="49.300634" lon="7.184244">
        <ele>274.861449</ele>
        <time>2021-10-20T21:16:11.089Z</time>
      </trkpt>
      <trkpt lat="49.301036" lon="7.184813">
        <ele>275.833834</ele>
        <time>2021-10-20T21:17:07.961Z</time>
      </trkpt>
      <trkpt lat="49.301307" lon="7.184912">
        <ele>276.348520</ele>
        <time>2021-10-20T21:17:37.779Z</time>
      </trkpt>
      <trkpt lat="49.302478" lon="7.184888">
        <ele>278.568602</ele>
        <time>2021-10-20T21:19:44.323Z</time>
      </trkpt>
      <trkpt lat="49.302642" lon="7.184918">
        <ele>278.932919</ele>
        <time>2021-10-20T21:20:01.697Z</time>
      </trkpt>
      <trkpt lat="49.302814" lon="7.185079">
        <ele>279.377406</ele>
        <time>2021-10-20T21:20:23.719Z</time>
      </trkpt>
      <trkpt lat="49.303373" lon="7.185583">
        <ele>280.807757</ele>
        <time>2021-10-20T21:21:33.393Z</time>
      </trkpt>
      <trkpt lat="49.303821" lon="7.186276">
        <ele>282.222890</ele>
        <time>2021-10-20T21:22:42.034Z</time>
      </trkpt>
      <trkpt lat="49.305168" lon="7.187373">
        <ele>287.292843</ele>
        <time>2021-10-20T21:25:28.943Z</time>
      </trkpt>
      <trkpt lat="49.305566" lon="7.187796">
        <ele>289.840332</ele>
        <time>2021-10-20T21:26:26.913Z</time>
      </trkpt>
      <trkpt lat="49.305873" lon="7.188155">
        <ele>292.761543</ele>
        <time>2021-10-20T21:27:14.287Z</time>
      </trkpt>
      <trkpt lat="49.305873" lon="7.188155">
        <ele>292.761543</ele>
        <time>2021-10-20T21:27:14.685Z</time>
      </trkpt>
      <trkpt lat="49.305873" lon="7.188155">
        <ele>292.761543</ele>
        <time>2021-10-20T21:27:15.279Z</time>
      </trkpt>
      <trkpt lat="49.306036" lon="7.188704">
        <ele>295.737733</ele>
        <time>2021-10-20T21:28:05.214Z</time>
      </trkpt>
      <trkpt lat="49.306105" lon="7.189234">
        <ele>298.404194</ele>
        <time>2021-10-20T21:28:50.904Z</time>
      </trkpt>
      <trkpt lat="49.306116" lon="7.189720">
        <ele>300.803401</ele>
        <time>2021-10-20T21:29:32.474Z</time>
      </trkpt>
      <trkpt lat="49.306215" lon="7.190306">
        <ele>303.825367</ele>
        <time>2021-10-20T21:30:24.099Z</time>
      </trkpt>
      <trkpt lat="49.306237" lon="7.190505">
        <ele>304.838679</ele>
        <time>2021-10-20T21:30:41.565Z</time>
      </trkpt>
      <trkpt lat="49.306315" lon="7.191294">
        <ele>308.845014</ele>
        <time>2021-10-20T21:31:48.542Z</time>
      </trkpt>
      <trkpt lat="49.306372" lon="7.191698">
        <ele>310.920178</ele>
        <time>2021-10-20T21:32:22.399Z</time>
      </trkpt>
      <trkpt lat="49.306531" lon="7.192207">
        <ele>313.753665</ele>
        <time>2021-10-20T21:33:07.263Z</time>
      </trkpt>
      <trkpt lat="49.306507" lon="7.192541">
        <ele>315.440609</ele>
        <time>2021-10-20T21:33:33.460Z</time>
      </trkpt>
      <trkpt lat="49.306484" lon="7.193067">
        <ele>316.868036</ele>
        <time>2021-10-20T21:34:15.583Z</time>
      </trkpt>
      <trkpt lat="49.306380" lon="7.193410">
        <ele>317.826093</ele>
        <time>2021-10-20T21:34:45.453Z</time>
      </trkpt>
      <trkpt lat="49.306380" lon="7.193410">
        <ele>317.826093</ele>
        <time>2021-10-20T21:34:45.610Z</time>
      </trkpt>
      <trkpt lat="49.306380" lon="7.193410">
        <ele>317.826093</ele>
        <time>2021-10-20T21:34:45.851Z</time>
      </trkpt>
      <trkpt lat="49.307215" lon="7.194121">
        <ele>321.535946</ele>
        <time>2021-10-20T21:36:32.072Z</time>
      </trkpt>
      <trkpt lat="49.307215" lon="7.194121">
        <ele>321.535946</ele>
        <time>2021-10-20T21:36:33.910Z</time>
      </trkpt>
      <trkpt lat="49.307259" lon="7.194304">
        <ele>322.029933</ele>
        <time>2021-10-20T21:36:47.517Z</time>
      </trkpt>
      <trkpt lat="49.307548" lon="7.195469">
        <ele>322.211161</ele>
        <time>2021-10-20T21:38:11.333Z</time>
      </trkpt>
      <trkpt lat="49.307556" lon="7.195546">
        <ele>322.180289</ele>
        <time>2021-10-20T21:38:17.067Z</time>
      </trkpt>
      <trkpt lat="49.307961" lon="7.197003">
        <ele>321.553162</ele>
        <time>2021-10-20T21:40:02.800Z</time>
      </trkpt>
      <trkpt lat="49.308230" lon="7.197745">
        <ele>319.932011</ele>
        <time>2021-10-20T21:41:02.344Z</time>
      </trkpt>
      <trkpt lat="49.308465" lon="7.198921">
        <ele>317.387701</ele>
        <time>2021-10-20T21:42:28.628Z</time>
      </trkpt>
      <trkpt lat="49.308579" lon="7.199300">
        <ele>316.524313</ele>
        <time>2021-10-20T21:42:57.583Z</time>
      </trkpt>
      <trkpt lat="49.308579" lon="7.199300">
        <ele>316.524313</ele>
        <time>2021-10-20T21:42:57.743Z</time>
      </trkpt>
      <trkpt lat="49.308579" lon="7.199300">
        <ele>316.524313</ele>
        <time>2021-10-20T21:42:57.969Z</time>
      </trkpt>
      <trkpt lat="49.308879" lon="7.199724">
        <ele>315.350806</ele>
        <time>2021-10-20T21:43:41.390Z</time>
      </trkpt>
      <trkpt lat="49.309267" lon="7.200159">
        <ele>314.141001</ele>
        <time>2021-10-20T21:44:32.286Z</time>
      </trkpt>
      <trkpt lat="49.309498" lon="7.200619">
        <ele>313.188071</ele>
        <time>2021-10-20T21:45:12.027Z</time>
      </trkpt>
      <trkpt lat="49.309746" lon="7.201012">
        <ele>312.290444</ele>
        <time>2021-10-20T21:45:49.405Z</time>
      </trkpt>
      <trkpt lat="49.310149" lon="7.201382">
        <ele>311.101986</ele>
        <time>2021-10-20T21:46:38.474Z</time>
      </trkpt>
      <trkpt lat="49.310595" lon="7.201735">
        <ele>309.795210</ele>
        <time>2021-10-20T21:47:30.688Z</time>
      </trkpt>
      <trkpt lat="49.310944" lon="7.201850">
        <ele>308.865761</ele>
        <time>2021-10-20T21:48:08.010Z</time>
      </trkpt>
      <trkpt lat="49.311185" lon="7.201973">
        <ele>308.204427</ele>
        <time>2021-10-20T21:48:34.644Z</time>
      </trkpt>
      <trkpt lat="49.311614" lon="7.202374">
        <ele>306.896340</ele>
        <time>2021-10-20T21:49:28.097Z</time>
      </trkpt>
      <trkpt lat="49.312488" lon="7.203153">
        <ele>303.063755</ele>
        <time>2021-10-20T21:51:17.479Z</time>
      </trkpt>
      <trkpt lat="49.313193" lon="7.203479">
        <ele>300.162561</ele>
        <time>2021-10-20T21:52:37.562Z</time>
      </trkpt>
      <trkpt lat="49.313646" lon="7.203805">
        <ele>298.612247</ele>
        <time>2021-10-20T21:53:31.608Z</time>
      </trkpt>
      <trkpt lat="49.313978" lon="7.204119">
        <ele>297.563634</ele>
        <time>2021-10-20T21:54:13.601Z</time>
      </trkpt>
      <trkpt lat="49.314225" lon="7.204574">
        <ele>296.525880</ele>
        <time>2021-10-20T21:54:54.648Z</time>
      </trkpt>
      <trkpt lat="49.314504" lon="7.205054">
        <ele>295.398762</ele>
        <time>2021-10-20T21:55:38.013Z</time>
      </trkpt>
      <trkpt lat="49.314701" lon="7.205217">
        <ele>294.796989</ele>
        <time>2021-10-20T21:56:01.243Z</time>
      </trkpt>
      <trkpt lat="49.314933" lon="7.205427">
        <ele>294.588019</ele>
        <time>2021-10-20T21:56:28.370Z</time>
      </trkpt>
      <trkpt lat="49.315250" lon="7.205753">
        <ele>294.430656</ele>
        <time>2021-10-20T21:57:06.978Z</time>
      </trkpt>
      <trkpt lat="49.315250" lon="7.205753">
        <ele>294.430656</ele>
        <time>2021-10-20T21:57:07.340Z</time>
      </trkpt>
      <trkpt lat="49.315148" lon="7.206144">
        <ele>294.317455</ele>
        <time>2021-10-20T21:57:35.248Z</time>
      </trkpt>
      <trkpt lat="49.314961" lon="7.206673">
        <ele>294.155702</ele>
        <time>2021-10-20T21:58:14.550Z</time>
      </trkpt>
      <trkpt lat="49.314759" lon="7.207345">
        <ele>293.956792</ele>
        <time>2021-10-20T21:59:02.936Z</time>
      </trkpt>
      <trkpt lat="49.314480" lon="7.207877">
        <ele>293.023244</ele>
        <time>2021-10-20T21:59:47.783Z</time>
      </trkpt>
      <trkpt lat="49.313847" lon="7.208832">
        <ele>291.007736</ele>
        <time>2021-10-20T22:01:20.542Z</time>
      </trkpt>
      <trkpt lat="49.313829" lon="7.209116">
        <ele>290.585463</ele>
        <time>2021-10-20T22:01:40.373Z</time>
      </trkpt>
      <trkpt lat="49.313761" lon="7.209542">
        <ele>289.936400</ele>
        <time>2021-10-20T22:02:11.267Z</time>
      </trkpt>
      <trkpt lat="49.313407" lon="7.210240">
        <ele>287.256565</ele>
        <time>2021-10-20T22:03:14.876Z</time>
      </trkpt>
      <trkpt lat="49.313542" lon="7.211562">
        <ele>283.067036</ele>
        <time>2021-10-20T22:04:51.933Z</time>
      </trkpt>
      <trkpt lat="49.313614" lon="7.211889">
        <ele>281.986414</ele>
        <time>2021-10-20T22:05:16.278Z</time>
      </trkpt>
      <trkpt lat="49.313614" lon="7.211889">
        <ele>281.986414</ele>
        <time>2021-10-20T22:05:17.100Z</time>
      </trkpt>
      <trkpt lat="49.313931" lon="7.212617">
        <ele>280.141026</ele>
        <time>2021-10-20T22:06:18.419Z</time>
      </trkpt>
      <trkpt lat="49.314131" lon="7.213370">
        <ele>278.750824</ele>
        <time>2021-10-20T22:07:15.745Z</time>
      </trkpt>
      <trkpt lat="49.314670" lon="7.214693">
        <ele>276.664664</ele>
        <time>2021-10-20T22:09:00.665Z</time>
      </trkpt>
      <trkpt lat="49.315024" lon="7.215508">
        <ele>277.319585</ele>
        <time>2021-10-20T22:10:06.621Z</time>
      </trkpt>
      <trkpt lat="49.315003" lon="7.215646">
        <ele>277.414352</ele>
        <time>2021-10-20T22:10:15.906Z</time>
      </trkpt>
      <trkpt lat="49.315001" lon="7.215641">
        <ele>277.418275</ele>
        <time>2021-10-20T22:10:17.087Z</time>
      </trkpt>
      <trkpt lat="49.315003" lon="7.215646">
        <ele>277.422197</ele>
        <time>2021-10-20T22:10:17.922Z</time>
      </trkpt>
      <trkpt lat="49.315106" lon="7.215960">
        <ele>277.657265</ele>
        <time>2021-10-20T22:10:43.212Z</time>
      </trkpt>
      <trkpt lat="49.315129" lon="7.216194">
        <ele>277.815518</ele>
        <time>2021-10-20T22:10:58.895Z</time>
      </trkpt>
      <trkpt lat="49.315078" lon="7.216395">
        <ele>277.959756</ele>
        <time>2021-10-20T22:11:14.023Z</time>
      </trkpt>
      <trkpt lat="49.314544" lon="7.216902">
        <ele>278.677123</ele>
        <time>2021-10-20T22:12:21.148Z</time>
      </trkpt>
      <trkpt lat="49.314483" lon="7.217061">
        <ele>278.835523</ele>
        <time>2021-10-20T22:12:34.378Z</time>
      </trkpt>
      <trkpt lat="49.314483" lon="7.217061">
        <ele>278.835523</ele>
        <time>2021-10-20T22:12:35.395Z</time>
      </trkpt>
      <trkpt lat="49.314800" lon="7.217589">
        <ele>279.451813</ele>
        <time>2021-10-20T22:13:25.430Z</time>
      </trkpt>
      <trkpt lat="49.315348" lon="7.218038">
        <ele>280.270047</ele>
        <time>2021-10-20T22:14:30.357Z</time>
      </trkpt>
      <trkpt lat="49.315607" lon="7.218653">
        <ele>280.753667</ele>
        <time>2021-10-20T22:15:18.308Z</time>
      </trkpt>
      <trkpt lat="49.315844" lon="7.219739">
        <ele>280.959785</ele>
        <time>2021-10-20T22:16:34.667Z</time>
      </trkpt>
      <trkpt lat="49.315985" lon="7.220023">
        <ele>281.024035</ele>
        <time>2021-10-20T22:16:58.179Z</time>
      </trkpt>
      <trkpt lat="49.315957" lon="7.220088">
        <ele>281.038057</ele>
        <time>2021-10-20T22:17:03.388Z</time>
      </trkpt>
      <trkpt lat="49.315844" lon="7.220353">
        <ele>281.095049</ele>
        <time>2021-10-20T22:17:25.071Z</time>
      </trkpt>
      <trkpt lat="49.315510" lon="7.220770">
        <ele>281.231526</ele>
        <time>2021-10-20T22:18:09.826Z</time>
      </trkpt>
      <trkpt lat="49.315501" lon="7.220999">
        <ele>281.610334</ele>
        <time>2021-10-20T22:18:25.438Z</time>
      </trkpt>
      <trkpt lat="49.315635" lon="7.221484">
        <ele>282.480115</ele>
        <time>2021-10-20T22:19:02.124Z</time>
      </trkpt>
      <trkpt lat="49.315696" lon="7.221520">
        <ele>282.645663</ele>
        <time>2021-10-20T22:19:10.090Z</time>
      </trkpt>
      <trkpt lat="49.316434" lon="7.221464">
        <ele>284.517236</ele>
        <time>2021-10-20T22:20:32.063Z</time>
      </trkpt>
      <trkpt lat="49.316923" lon="7.221660">
        <ele>285.746915</ele>
        <time>2021-10-20T22:21:28.704Z</time>
      </trkpt>
      <trkpt lat="49.317263" lon="7.222198">
        <ele>284.888878</ele>
        <time>2021-10-20T22:22:20.988Z</time>
      </trkpt>
      <trkpt lat="49.317568" lon="7.222808">
        <ele>284.008570</ele>
        <time>2021-10-20T22:23:12.295Z</time>
      </trkpt>
      <trkpt lat="49.317660" lon="7.222882">
        <ele>283.826094</ele>
        <time>2021-10-20T22:23:23.245Z</time>
      </trkpt>
      <trkpt lat="49.317670" lon="7.222939">
        <ele>283.758503</ele>
        <time>2021-10-20T22:23:27.382Z</time>
      </trkpt>
      <trkpt lat="49.317815" lon="7.223871">
        <ele>282.661324</ele>
        <time>2021-10-20T22:24:36.270Z</time>
      </trkpt>
      <trkpt lat="49.317815" lon="7.223871">
        <ele>282.661324</ele>
        <time>2021-10-20T22:24:36.274Z</time>
      </trkpt>
      <trkpt lat="49.317871" lon="7.223710">
        <ele>282.125364</ele>
        <time>2021-10-20T22:24:49.669Z</time>
      </trkpt>
      <trkpt lat="49.318213" lon="7.223409">
        <ele>279.978292</ele>
        <time>2021-10-20T22:25:33.892Z</time>
      </trkpt>
      <trkpt lat="49.318309" lon="7.223272">
        <ele>279.264308</ele>
        <time>2021-10-20T22:25:49.401Z</time>
      </trkpt>
      <trkpt lat="49.318274" lon="7.223141">
        <ele>278.761760</ele>
        <time>2021-10-20T22:25:59.026Z</time>
      </trkpt>
      <trkpt lat="49.318270" lon="7.223030">
        <ele>278.367147</ele>
        <time>2021-10-20T22:26:07.121Z</time>
      </trkpt>
      <trkpt lat="49.318266" lon="7.222905">
        <ele>277.922905</ele>
        <time>2021-10-20T22:26:16.570Z</time>
      </trkpt>
      <trkpt lat="49.318237" lon="7.222945">
        <ele>277.710542</ele>
        <time>2021-10-20T22:26:20.770Z</time>
      </trkpt>
      <trkpt lat="49.318266" lon="7.222905">
        <ele>277.498178</ele>
        <time>2021-10-20T22:26:25.827Z</time>
      </trkpt>
      <trkpt lat="49.318274" lon="7.222863">
        <ele>277.342858</ele>
        <time>2021-10-20T22:26:29.561Z</time>
      </trkpt>
      <trkpt lat="49.318318" lon="7.222784">
        <ele>276.974016</ele>
        <time>2021-10-20T22:26:36.506Z</time>
      </trkpt>
      <trkpt lat="49.318430" lon="7.222773">
        <ele>276.362876</ele>
        <time>2021-10-20T22:26:49.019Z</time>
      </trkpt>
      <trkpt lat="49.318515" lon="7.222748">
        <ele>275.891582</ele>
        <time>2021-10-20T22:26:58.789Z</time>
      </trkpt>
      <trkpt lat="49.318513" lon="7.222665">
        <ele>275.596761</ele>
        <time>2021-10-20T22:27:04.874Z</time>
      </trkpt>
      <trkpt lat="49.318358" lon="7.222118">
        <ele>273.479584</ele>
        <time>2021-10-20T22:27:48.981Z</time>
      </trkpt>
      <trkpt lat="49.317976" lon="7.221321">
        <ele>272.556238</ele>
        <time>2021-10-20T22:28:56.785Z</time>
      </trkpt>
      <trkpt lat="49.317291" lon="7.219052">
        <ele>272.049703</ele>
        <time>2021-10-20T22:31:45.440Z</time>
      </trkpt>
      <trkpt lat="49.317147" lon="7.218441">
        <ele>272.195763</ele>
        <time>2021-10-20T22:32:28.917Z</time>
      </trkpt>
      <trkpt lat="49.316717" lon="7.217585">
        <ele>272.438710</ele>
        <time>2021-10-20T22:33:39.814Z</time>
      </trkpt>
      <trkpt lat="49.316629" lon="7.217339">
        <ele>272.501793</ele>
        <time>2021-10-20T22:33:58.351Z</time>
      </trkpt>
      <trkpt lat="49.316420" lon="7.216674">
        <ele>272.551078</ele>
        <time>2021-10-20T22:34:46.871Z</time>
      </trkpt>
      <trkpt lat="49.316066" lon="7.215587">
        <ele>272.558230</ele>
        <time>2021-10-20T22:36:06.552Z</time>
      </trkpt>
      <trkpt lat="49.315944" lon="7.214837">
        <ele>272.562780</ele>
        <time>2021-10-20T22:36:57.214Z</time>
      </trkpt>
      <trkpt lat="49.315762" lon="7.214147">
        <ele>272.828166</ele>
        <time>2021-10-20T22:37:46.982Z</time>
      </trkpt>
      <trkpt lat="49.315762" lon="7.214147">
        <ele>272.828166</ele>
        <time>2021-10-20T22:37:47.576Z</time>
      </trkpt>
      <trkpt lat="49.316512" lon="7.213599">
        <ele>273.492647</ele>
        <time>2021-10-20T22:39:13.630Z</time>
      </trkpt>
      <trkpt lat="49.316568" lon="7.213540">
        <ele>273.546987</ele>
        <time>2021-10-20T22:39:21.005Z</time>
      </trkpt>
      <trkpt lat="49.317141" lon="7.212930">
        <ele>273.869834</ele>
        <time>2021-10-20T22:40:33.377Z</time>
      </trkpt>
      <trkpt lat="49.318259" lon="7.211995">
        <ele>272.541374</ele>
        <time>2021-10-20T22:42:43.750Z</time>
      </trkpt>
      <trkpt lat="49.318259" lon="7.211995">
        <ele>272.541374</ele>
        <time>2021-10-20T22:42:45.210Z</time>
      </trkpt>
      <trkpt lat="49.318259" lon="7.211995">
        <ele>272.541374</ele>
        <time>2021-10-20T22:42:46.209Z</time>
      </trkpt>
      <trkpt lat="49.318515" lon="7.213027">
        <ele>271.538996</ele>
        <time>2021-10-20T22:44:01.613Z</time>
      </trkpt>
      <trkpt lat="49.318603" lon="7.213360">
        <ele>271.111726</ele>
        <time>2021-10-20T22:44:26.058Z</time>
      </trkpt>
      <trkpt lat="49.318649" lon="7.213403">
        <ele>271.013463</ele>
        <time>2021-10-20T22:44:31.848Z</time>
      </trkpt>
      <trkpt lat="49.319009" lon="7.213955">
        <ele>270.084974</ele>
        <time>2021-10-20T22:45:24.821Z</time>
      </trkpt>
      <trkpt lat="49.319009" lon="7.213955">
        <ele>270.084974</ele>
        <time>2021-10-20T22:45:24.940Z</time>
      </trkpt>
      <trkpt lat="49.319009" lon="7.213955">
        <ele>270.084974</ele>
        <time>2021-10-20T22:45:25.023Z</time>
      </trkpt>
      <trkpt lat="49.319021" lon="7.214248">
        <ele>269.735886</ele>
        <time>2021-10-20T22:45:44.982Z</time>
      </trkpt>
      <trkpt lat="49.319411" lon="7.215987">
        <ele>268.012175</ele>
        <time>2021-10-20T22:47:48.016Z</time>
      </trkpt>
      <trkpt lat="49.319490" lon="7.216182">
        <ele>267.836699</ele>
        <time>2021-10-20T22:48:03.174Z</time>
      </trkpt>
      <trkpt lat="49.319595" lon="7.216393">
        <ele>267.633812</ele>
        <time>2021-10-20T22:48:20.713Z</time>
      </trkpt>
      <trkpt lat="49.319888" lon="7.216769">
        <ele>267.185922</ele>
        <time>2021-10-20T22:48:59.866Z</time>
      </trkpt>
      <trkpt lat="49.320433" lon="7.217786">
        <ele>266.158518</ele>
        <time>2021-10-20T22:50:28.652Z</time>
      </trkpt>
      <trkpt lat="49.320603" lon="7.217986">
        <ele>265.897775</ele>
        <time>2021-10-20T22:50:50.937Z</time>
      </trkpt>
      <trkpt lat="49.320711" lon="7.218064">
        <ele>265.752490</ele>
        <time>2021-10-20T22:51:03.118Z</time>
      </trkpt>
      <trkpt lat="49.320711" lon="7.218064">
        <ele>265.752490</ele>
        <time>2021-10-20T22:51:03.333Z</time>
      </trkpt>
      <trkpt lat="49.320792" lon="7.218079">
        <ele>265.653189</ele>
        <time>2021-10-20T22:51:12.113Z</time>
      </trkpt>
      <trkpt lat="49.320972" lon="7.217996">
        <ele>265.424427</ele>
        <time>2021-10-20T22:51:30.965Z</time>
      </trkpt>
      <trkpt lat="49.321233" lon="7.217372">
        <ele>264.836229</ele>
        <time>2021-10-20T22:52:20.402Z</time>
      </trkpt>
      <trkpt lat="49.321304" lon="7.217236">
        <ele>264.697996</ele>
        <time>2021-10-20T22:52:32.304Z</time>
      </trkpt>
      <trkpt lat="49.321299" lon="7.217123">
        <ele>264.608143</ele>
        <time>2021-10-20T22:52:40.000Z</time>
      </trkpt>
      <trkpt lat="49.321325" lon="7.216883">
        <ele>264.682154</ele>
        <time>2021-10-20T22:52:55.914Z</time>
      </trkpt>
      <trkpt lat="49.321346" lon="7.216718">
        <ele>264.818317</ele>
        <time>2021-10-20T22:53:07.336Z</time>
      </trkpt>
      <trkpt lat="49.321460" lon="7.216312">
        <ele>265.176362</ele>
        <time>2021-10-20T22:53:36.285Z</time>
      </trkpt>
      <trkpt lat="49.321510" lon="7.216118">
        <ele>265.345326</ele>
        <time>2021-10-20T22:53:49.885Z</time>
      </trkpt>
      <trkpt lat="49.321553" lon="7.216039">
        <ele>265.428686</ele>
        <time>2021-10-20T22:53:57.291Z</time>
      </trkpt>
      <trkpt lat="49.321553" lon="7.216039">
        <ele>265.428686</ele>
        <time>2021-10-20T22:53:57.558Z</time>
      </trkpt>
      <trkpt lat="49.321390" lon="7.215776">
        <ele>265.722619</ele>
        <time>2021-10-20T22:54:22.020Z</time>
      </trkpt>
      <trkpt lat="49.320996" lon="7.215900">
        <ele>266.222390</ele>
        <time>2021-10-20T22:55:05.092Z</time>
      </trkpt>
      <trkpt lat="49.320996" lon="7.215900">
        <ele>266.222390</ele>
        <time>2021-10-20T22:55:05.290Z</time>
      </trkpt>
      <trkpt lat="49.320996" lon="7.215900">
        <ele>266.222390</ele>
        <time>2021-10-20T22:55:05.579Z</time>
      </trkpt>
      <trkpt lat="49.320720" lon="7.215670">
        <ele>266.612670</ele>
        <time>2021-10-20T22:55:40.447Z</time>
      </trkpt>
      <trkpt lat="49.320535" lon="7.215505">
        <ele>266.946961</ele>
        <time>2021-10-20T22:56:04.086Z</time>
      </trkpt>
      <trkpt lat="49.320458" lon="7.215269">
        <ele>267.312437</ele>
        <time>2021-10-20T22:56:22.663Z</time>
      </trkpt>
      <trkpt lat="49.320409" lon="7.215044">
        <ele>267.640954</ele>
        <time>2021-10-20T22:56:39.825Z</time>
      </trkpt>
      <trkpt lat="49.320346" lon="7.214786">
        <ele>268.022488</ele>
        <time>2021-10-20T22:56:59.115Z</time>
      </trkpt>
      <trkpt lat="49.320150" lon="7.214421">
        <ele>268.677386</ele>
        <time>2021-10-20T22:57:32.300Z</time>
      </trkpt>
      <trkpt lat="49.319912" lon="7.213890">
        <ele>269.569804</ele>
        <time>2021-10-20T22:58:17.552Z</time>
      </trkpt>
      <trkpt lat="49.319868" lon="7.213680">
        <ele>269.875276</ele>
        <time>2021-10-20T22:58:32.993Z</time>
      </trkpt>
      <trkpt lat="49.318616" lon="7.209495">
        <ele>275.037478</ele>
        <time>2021-10-20T23:03:48.055Z</time>
      </trkpt>
      <trkpt lat="49.318366" lon="7.208535">
        <ele>276.535301</ele>
        <time>2021-10-20T23:05:02.030Z</time>
      </trkpt>
      <trkpt lat="49.318225" lon="7.207913">
        <ele>277.831038</ele>
        <time>2021-10-20T23:05:49.628Z</time>
      </trkpt>
      <trkpt lat="49.318225" lon="7.207913">
        <ele>277.831038</ele>
        <time>2021-10-20T23:05:50.106Z</time>
      </trkpt>
      <trkpt lat="49.318518" lon="7.207646">
        <ele>279.295591</ele>
        <time>2021-10-20T23:06:28.261Z</time>
      </trkpt>
      <trkpt lat="49.319022" lon="7.207179">
        <ele>281.825934</ele>
        <time>2021-10-20T23:07:36.503Z</time>
      </trkpt>
      <trkpt lat="49.319567" lon="7.206655">
        <ele>284.590018</ele>
        <time>2021-10-20T23:08:51.819Z</time>
      </trkpt>
      <trkpt lat="49.320125" lon="7.206196">
        <ele>287.503798</ele>
        <time>2021-10-20T23:10:06.139Z</time>
      </trkpt>
      <trkpt lat="49.320654" lon="7.205724">
        <ele>290.340016</ele>
        <time>2021-10-20T23:11:17.673Z</time>
      </trkpt>
      <trkpt lat="49.320887" lon="7.205509">
        <ele>291.600165</ele>
        <time>2021-10-20T23:11:49.334Z</time>
      </trkpt>
      <trkpt lat="49.321006" lon="7.205386">
        <ele>292.265180</ele>
        <time>2021-10-20T23:12:05.783Z</time>
      </trkpt>
      <trkpt lat="49.321315" lon="7.205093">
        <ele>293.629303</ele>
        <time>2021-10-20T23:12:47.310Z</time>
      </trkpt>
      <trkpt lat="49.321315" lon="7.205093">
        <ele>293.629303</ele>
        <time>2021-10-20T23:12:47.931Z</time>
      </trkpt>
      <trkpt lat="49.321315" lon="7.205093">
        <ele>293.629303</ele>
        <time>2021-10-20T23:12:48.843Z</time>
      </trkpt>
      <trkpt lat="49.321183" lon="7.204912">
        <ele>294.104753</ele>
        <time>2021-10-20T23:13:08.946Z</time>
      </trkpt>
      <trkpt lat="49.320952" lon="7.204595">
        <ele>294.937083</ele>
        <time>2021-10-20T23:13:43.265Z</time>
      </trkpt>
      <trkpt lat="49.320479" lon="7.203382">
        <ele>297.411407</ele>
        <time>2021-10-20T23:15:22.765Z</time>
      </trkpt>
      <trkpt lat="49.319520" lon="7.200550">
        <ele>302.284099</ele>
        <time>2021-10-20T23:19:03.475Z</time>
      </trkpt>
      <trkpt lat="49.318166" lon="7.196442">
        <ele>319.469508</ele>
        <time>2021-10-20T23:25:06.534Z</time>
      </trkpt>
      <trkpt lat="49.318137" lon="7.196359">
        <ele>319.842395</ele>
        <time>2021-10-20T23:25:14.952Z</time>
      </trkpt>
      <trkpt lat="49.317930" lon="7.195771">
        <ele>322.488526</ele>
        <time>2021-10-20T23:26:07.822Z</time>
      </trkpt>
      <trkpt lat="49.317656" lon="7.195038">
        <ele>324.509723</ele>
        <time>2021-10-20T23:27:12.970Z</time>
      </trkpt>
      <trkpt lat="49.316586" lon="7.191885">
        <ele>330.513061</ele>
        <time>2021-10-20T23:31:24.920Z</time>
      </trkpt>
      <trkpt lat="49.316305" lon="7.191120">
        <ele>331.369899</ele>
        <time>2021-10-20T23:32:22.552Z</time>
      </trkpt>
      <trkpt lat="49.316139" lon="7.190637">
        <ele>331.822724</ele>
        <time>2021-10-20T23:32:58.182Z</time>
      </trkpt>
      <trkpt lat="49.315658" lon="7.188993">
        <ele>332.973314</ele>
        <time>2021-10-20T23:34:58.653Z</time>
      </trkpt>
      <trkpt lat="49.315385" lon="7.188277">
        <ele>333.630079</ele>
        <time>2021-10-20T23:35:56.257Z</time>
      </trkpt>
      <trkpt lat="49.315168" lon="7.187709">
        <ele>334.815067</ele>
        <time>2021-10-20T23:36:42.898Z</time>
      </trkpt>
      <trkpt lat="49.315065" lon="7.187385">
        <ele>335.463891</ele>
        <time>2021-10-20T23:37:08.619Z</time>
      </trkpt>
      <trkpt lat="49.314988" lon="7.186997">
        <ele>336.193909</ele>
        <time>2021-10-20T23:37:37.818Z</time>
      </trkpt>
      <trkpt lat="49.314955" lon="7.186829">
        <ele>336.509727</ele>
        <time>2021-10-20T23:37:50.481Z</time>
      </trkpt>
      <trkpt lat="49.314955" lon="7.186829">
        <ele>336.509727</ele>
        <time>2021-10-20T23:37:50.771Z</time>
      </trkpt>
      <trkpt lat="49.315255" lon="7.186254">
        <ele>337.835342</ele>
        <time>2021-10-20T23:38:44.078Z</time>
      </trkpt>
      <trkpt lat="49.315361" lon="7.186073">
        <ele>338.273285</ele>
        <time>2021-10-20T23:39:01.861Z</time>
      </trkpt>
      <trkpt lat="49.315394" lon="7.186018">
        <ele>338.409069</ele>
        <time>2021-10-20T23:39:07.125Z</time>
      </trkpt>
      <trkpt lat="49.315996" lon="7.185032">
        <ele>341.190698</ele>
        <time>2021-10-20T23:40:45.534Z</time>
      </trkpt>
      <trkpt lat="49.316526" lon="7.184606">
        <ele>343.080634</ele>
        <time>2021-10-20T23:41:52.118Z</time>
      </trkpt>
      <trkpt lat="49.317085" lon="7.184082">
        <ele>344.684056</ele>
        <time>2021-10-20T23:43:04.658Z</time>
      </trkpt>
      <trkpt lat="49.317759" lon="7.183666">
        <ele>345.979340</ele>
        <time>2021-10-20T23:44:22.998Z</time>
      </trkpt>
      <trkpt lat="49.317910" lon="7.183572">
        <ele>346.269878</ele>
        <time>2021-10-20T23:44:40.214Z</time>
      </trkpt>
      <trkpt lat="49.318201" lon="7.183340">
        <ele>346.854580</ele>
        <time>2021-10-20T23:45:14.615Z</time>
      </trkpt>
      <trkpt lat="49.318659" lon="7.182977">
        <ele>346.887565</ele>
        <time>2021-10-20T23:46:06.508Z</time>
      </trkpt>
      <trkpt lat="49.319131" lon="7.182523">
        <ele>346.071657</ele>
        <time>2021-10-20T23:47:03.062Z</time>
      </trkpt>
      <trkpt lat="49.319538" lon="7.181523">
        <ele>344.946190</ele>
        <time>2021-10-20T23:48:23.892Z</time>
      </trkpt>
      <trkpt lat="49.319904" lon="7.180608">
        <ele>343.139314</ele>
        <time>2021-10-20T23:49:37.932Z</time>
      </trkpt>
      <trkpt lat="49.319904" lon="7.180608">
        <ele>343.139314</ele>
        <time>2021-10-20T23:49:38.315Z</time>
      </trkpt>
      <trkpt lat="49.319904" lon="7.180608">
        <ele>343.139314</ele>
        <time>2021-10-20T23:49:38.870Z</time>
      </trkpt>
      <trkpt lat="49.319978" lon="7.180424">
        <ele>342.712310</ele>
        <time>2021-10-20T23:49:54.150Z</time>
      </trkpt>
      <trkpt lat="49.321245" lon="7.178058">
        <ele>337.156947</ele>
        <time>2021-10-20T23:53:26.626Z</time>
      </trkpt>
      <trkpt lat="49.321542" lon="7.177683">
        <ele>336.217444</ele>
        <time>2021-10-20T23:54:06.964Z</time>
      </trkpt>
      <trkpt lat="49.322000" lon="7.177214">
        <ele>334.872487</ele>
        <time>2021-10-20T23:55:04.148Z</time>
      </trkpt>
      <trkpt lat="49.322000" lon="7.177214">
        <ele>334.872487</ele>
        <time>2021-10-20T23:55:04.360Z</time>
      </trkpt>
      <trkpt lat="49.322589" lon="7.176713">
        <ele>335.129545</ele>
        <time>2021-10-20T23:56:13.429Z</time>
      </trkpt>
      <trkpt lat="49.323729" lon="7.175922">
        <ele>336.122257</ele>
        <time>2021-10-20T23:58:24.380Z</time>
      </trkpt>
      <trkpt lat="49.323999" lon="7.175710">
        <ele>337.406660</ele>
        <time>2021-10-20T23:58:58.083Z</time>
      </trkpt>
      <trkpt lat="49.323999" lon="7.175710">
        <ele>337.406660</ele>
        <time>2021-10-20T23:58:58.883Z</time>
      </trkpt>
      <trkpt lat="49.323999" lon="7.175710">
        <ele>337.406660</ele>
        <time>2021-10-20T23:58:59.424Z</time>
      </trkpt>
      <trkpt lat="49.324223" lon="7.174922">
        <ele>339.779470</ele>
        <time>2021-10-21T00:00:03.873Z</time>
      </trkpt>
      <trkpt lat="49.324644" lon="7.173359">
        <ele>344.038901</ele>
        <time>2021-10-21T00:02:15.841Z</time>
      </trkpt>
      <trkpt lat="49.325043" lon="7.172201">
        <ele>346.351642</ele>
        <time>2021-10-21T00:03:52.916Z</time>
      </trkpt>
      <trkpt lat="49.325122" lon="7.171812">
        <ele>347.071044</ele>
        <time>2021-10-21T00:04:19.529Z</time>
      </trkpt>
      <trkpt lat="49.325122" lon="7.171812">
        <ele>347.071044</ele>
        <time>2021-10-21T00:04:19.864Z</time>
      </trkpt>
      <trkpt lat="49.324800" lon="7.171633">
        <ele>347.998831</ele>
        <time>2021-10-21T00:04:54.854Z</time>
      </trkpt>
      <trkpt lat="49.324335" lon="7.171377">
        <ele>345.831528</ele>
        <time>2021-10-21T00:05:44.579Z</time>
      </trkpt>
      <trkpt lat="49.324197" lon="7.171273">
        <ele>344.979414</ele>
        <time>2021-10-21T00:06:01.219Z</time>
      </trkpt>
      <trkpt lat="49.324139" lon="7.171138">
        <ele>344.395338</ele>
        <time>2021-10-21T00:06:13.601Z</time>
      </trkpt>
      <trkpt lat="49.324197" lon="7.171273">
        <ele>343.811263</ele>
        <time>2021-10-21T00:06:24.961Z</time>
      </trkpt>
      <trkpt lat="49.321347" lon="7.171042">
        <ele>321.651490</ele>
        <time>2021-10-21T00:12:00.928Z</time>
      </trkpt>
      <trkpt lat="49.320315" lon="7.171057">
        <ele>312.719765</ele>
        <time>2021-10-21T00:14:03.888Z</time>
      </trkpt>
      <trkpt lat="49.320315" lon="7.171057">
        <ele>312.719765</ele>
        <time>2021-10-21T00:14:04.514Z</time>
      </trkpt>
      <trkpt lat="49.320189" lon="7.170842">
        <ele>311.088782</ele>
        <time>2021-10-21T00:14:26.438Z</time>
      </trkpt>
      <trkpt lat="49.319952" lon="7.169490">
        <ele>304.909982</ele>
        <time>2021-10-21T00:16:11.083Z</time>
      </trkpt>
      <trkpt lat="49.319868" lon="7.168267">
        <ele>301.594035</ele>
        <time>2021-10-21T00:17:38.312Z</time>
      </trkpt>
      <trkpt lat="49.319775" lon="7.167862">
        <ele>300.436212</ele>
        <time>2021-10-21T00:18:07.822Z</time>
      </trkpt>
      <trkpt lat="49.319769" lon="7.167902">
        <ele>300.325537</ele>
        <time>2021-10-21T00:18:10.780Z</time>
      </trkpt>
      <trkpt lat="49.319713" lon="7.168246">
        <ele>299.369485</ele>
        <time>2021-10-21T00:18:34.891Z</time>
      </trkpt>
      <trkpt lat="49.319595" lon="7.168679">
        <ele>299.302566</ele>
        <time>2021-10-21T00:19:06.553Z</time>
      </trkpt>
      <trkpt lat="49.319329" lon="7.169414">
        <ele>299.926898</ele>
        <time>2021-10-21T00:20:03.008Z</time>
      </trkpt>
      <trkpt lat="49.319284" lon="7.169536">
        <ele>300.031001</ele>
        <time>2021-10-21T00:20:12.320Z</time>
      </trkpt>
      <trkpt lat="49.319019" lon="7.169650">
        <ele>300.344563</ele>
        <time>2021-10-21T00:20:41.618Z</time>
      </trkpt>
      <trkpt lat="49.318811" lon="7.169681">
        <ele>300.582655</ele>
        <time>2021-10-21T00:21:03.303Z</time>
      </trkpt>
      <trkpt lat="49.318483" lon="7.169784">
        <ele>300.964097</ele>
        <time>2021-10-21T00:21:39.461Z</time>
      </trkpt>
      <trkpt lat="49.318372" lon="7.169816">
        <ele>301.092773</ele>
        <time>2021-10-21T00:21:52.257Z</time>
      </trkpt>
      <trkpt lat="49.318372" lon="7.169816">
        <ele>301.092773</ele>
        <time>2021-10-21T00:21:53.312Z</time>
      </trkpt>
      <trkpt lat="49.317997" lon="7.169927">
        <ele>302.724479</ele>
        <time>2021-10-21T00:22:36.737Z</time>
      </trkpt>
      <trkpt lat="49.317302" lon="7.170160">
        <ele>305.764805</ele>
        <time>2021-10-21T00:23:59.580Z</time>
      </trkpt>
      <trkpt lat="49.317068" lon="7.170175">
        <ele>306.765725</ele>
        <time>2021-10-21T00:24:25.986Z</time>
      </trkpt>
      <trkpt lat="49.316838" lon="7.170257">
        <ele>307.774874</ele>
        <time>2021-10-21T00:24:53.591Z</time>
      </trkpt>
      <trkpt lat="49.316788" lon="7.170292">
        <ele>308.009755</ele>
        <time>2021-10-21T00:24:59.680Z</time>
      </trkpt>
      <trkpt lat="49.316741" lon="7.170325">
        <ele>308.230659</ele>
        <time>2021-10-21T00:25:05.390Z</time>
      </trkpt>
      <trkpt lat="49.316388" lon="7.170658">
        <ele>310.458751</ele>
        <time>2021-10-21T00:25:53.673Z</time>
      </trkpt>
      <trkpt lat="49.316139" lon="7.171052">
        <ele>312.559437</ele>
        <time>2021-10-21T00:26:36.253Z</time>
      </trkpt>
      <trkpt lat="49.315952" lon="7.171250">
        <ele>313.893744</ele>
        <time>2021-10-21T00:27:04.440Z</time>
      </trkpt>
      <trkpt lat="49.315694" lon="7.171382">
        <ele>315.490845</ele>
        <time>2021-10-21T00:27:36.576Z</time>
      </trkpt>
      <trkpt lat="49.315512" lon="7.171716">
        <ele>317.157290</ele>
        <time>2021-10-21T00:28:10.619Z</time>
      </trkpt>
      <trkpt lat="49.315472" lon="7.171765">
        <ele>317.457889</ele>
        <time>2021-10-21T00:28:17.015Z</time>
      </trkpt>
      <trkpt lat="49.315386" lon="7.171863">
        <ele>318.087005</ele>
        <time>2021-10-21T00:28:31.230Z</time>
      </trkpt>
      <trkpt lat="49.314478" lon="7.173043">
        <ele>325.056511</ele>
        <time>2021-10-21T00:30:57.800Z</time>
      </trkpt>
      <trkpt lat="49.314278" lon="7.173374">
        <ele>326.778563</ele>
        <time>2021-10-21T00:31:35.042Z</time>
      </trkpt>
      <trkpt lat="49.314065" lon="7.173588">
        <ele>328.268876</ele>
        <time>2021-10-21T00:32:04.061Z</time>
      </trkpt>
      <trkpt lat="49.313970" lon="7.173584">
        <ele>328.825127</ele>
        <time>2021-10-21T00:32:15.098Z</time>
      </trkpt>
      <trkpt lat="49.313244" lon="7.173057">
        <ele>330.721757</ele>
        <time>2021-10-21T00:33:43.422Z</time>
      </trkpt>
      <trkpt lat="49.313041" lon="7.173165">
        <ele>331.014836</ele>
        <time>2021-10-21T00:34:05.984Z</time>
      </trkpt>
      <trkpt lat="49.312980" lon="7.173307">
        <ele>331.166057</ele>
        <time>2021-10-21T00:34:17.824Z</time>
      </trkpt>
      <trkpt lat="49.312880" lon="7.173362">
        <ele>331.310963</ele>
        <time>2021-10-21T00:34:28.590Z</time>
      </trkpt>
      <trkpt lat="49.312880" lon="7.173362">
        <ele>331.310963</ele>
        <time>2021-10-21T00:34:28.849Z</time>
      </trkpt>
      <trkpt lat="49.312635" lon="7.172982">
        <ele>331.786218</ele>
        <time>2021-10-21T00:35:05.080Z</time>
      </trkpt>
      <trkpt lat="49.312286" lon="7.172773">
        <ele>332.297257</ele>
        <time>2021-10-21T00:35:42.897Z</time>
      </trkpt>
      <trkpt lat="49.311569" lon="7.172200">
        <ele>332.028569</ele>
        <time>2021-10-21T00:37:05.966Z</time>
      </trkpt>
      <trkpt lat="49.311283" lon="7.171944">
        <ele>331.905099</ele>
        <time>2021-10-21T00:37:39.606Z</time>
      </trkpt>
      <trkpt lat="49.311129" lon="7.171805">
        <ele>331.838472</ele>
        <time>2021-10-21T00:37:57.637Z</time>
      </trkpt>
      <trkpt lat="49.310701" lon="7.171603">
        <ele>331.671500</ele>
        <time>2021-10-21T00:38:43.044Z</time>
      </trkpt>
      <trkpt lat="49.310670" lon="7.171589">
        <ele>331.659450</ele>
        <time>2021-10-21T00:38:46.287Z</time>
      </trkpt>
      <trkpt lat="49.310237" lon="7.171162">
        <ele>332.257577</ele>
        <time>2021-10-21T00:39:39.397Z</time>
      </trkpt>
      <trkpt lat="49.310021" lon="7.170894">
        <ele>332.596812</ele>
        <time>2021-10-21T00:40:08.480Z</time>
      </trkpt>
      <trkpt lat="49.309649" lon="7.170435">
        <ele>333.179773</ele>
        <time>2021-10-21T00:40:57.862Z</time>
      </trkpt>
      <trkpt lat="49.309338" lon="7.170029">
        <ele>333.678445</ele>
        <time>2021-10-21T00:41:41.350Z</time>
      </trkpt>
      <trkpt lat="49.309254" lon="7.169917">
        <ele>333.814350</ele>
        <time>2021-10-21T00:41:53.900Z</time>
      </trkpt>
      <trkpt lat="49.309254" lon="7.169917">
        <ele>333.814350</ele>
        <time>2021-10-21T00:41:54.262Z</time>
      </trkpt>
      <trkpt lat="49.309254" lon="7.169917">
        <ele>333.814350</ele>
        <time>2021-10-21T00:41:54.505Z</time>
      </trkpt>
      <trkpt lat="49.309308" lon="7.169802">
        <ele>333.848561</ele>
        <time>2021-10-21T00:42:04.154Z</time>
      </trkpt>
      <trkpt lat="49.309341" lon="7.169726">
        <ele>333.848561</ele>
        <time>2021-10-21T00:42:10.475Z</time>
      </trkpt>
      <trkpt lat="49.309419" lon="7.169716">
        <ele>333.848561</ele>
        <time>2021-10-21T00:42:18.695Z</time>
      </trkpt>
      <trkpt lat="49.309420" lon="7.169418">
        <ele>333.848561</ele>
        <time>2021-10-21T00:42:39.964Z</time>
      </trkpt>
      <trkpt lat="49.309726" lon="7.168739">
        <ele>333.848561</ele>
        <time>2021-10-21T00:43:36.886Z</time>
      </trkpt>
      <trkpt lat="49.310038" lon="7.168046">
        <ele>333.848561</ele>
        <time>2021-10-21T00:44:34.268Z</time>
      </trkpt>
    </trkseg>
  </trk>
</gpx>